Search for airport 
image banner adimage banner adimage banner ad
image banner ad

KOOA - Oskaloosa Muni

Located in Oskaloosa, United States

ICAO - OOA, IATA -

Data provided by Airmate  

General information

Coordinates: N41°13'34" W92°29'38"
Elevation is 840 feet MSL.
Magnetic variation is 01° East
View others Airports in Iowa

Operational data

Special qualification required
Current time UTC:
Current local time:
Weather
METAR: KOOA 181755Z AUTO 00000KT 7SM +RA CLR 30/22 A2985 RMK AO2 T02990216 10306 20258
View NOTAMs / SUP AIP / TFR affecting this airport [VIEW]
Communications frequencies: [VIEW]

Runways:

RWY identifierQFULength (ft)Width (ft)SurfaceLDA (ft)
0445°192675CONC
22225°192675CONC
13135°401275CONC
31315°401275CONC

Airport contact information

Address: Oskaloosa United States

Other aviation service providers

Flight schools

Midwest Aviation Service, Inc.

Midwest Aviation Service, Inc.
mwa@mchsi.com+1(641)933-4316

Satellite view of KOOA